1883 Tropical Storm NOT_NAMED (1883280N27301)


IBTrACS version v04r00. Visit IBTrACS website for data access.
Please direct all questions to the IBTrACS Q and A forum

Storm track - Intensity - Wind Radii - Intensity Data - Source Data - All data

Summary Information

Storm ID 1883280N27301
Start Oct 6 12Z
Landfall Oct 14 09Z
Max Intensity 55 kt (Oct 9 12Z), 998 mb (Oct 9 12Z)
End Oct 14 12Z
ATCF IDs
Track status Best track data.

Storm track plot

Map of storm track

Intensity plots

Map of storm track

Radial wind information

No radial wind information for this storm


Position and Intensity Table

BASIN ISO_TIME_________ NATURE LAT LON MLC WIND MLC PRES
degrees north degrees east kts mb
NA 1883-10-06 12:00:00 TS 27.00 -59.00 25
NA 15:00:00 TS 26.94 -59.25 25
NA 18:00:00 TS 26.90 -59.50 25
NA 21:00:00 TS 26.90 -59.75 27
NA 1883-10-07 00:00:00 TS 26.90 -60.00 30
NA 03:00:00 TS 26.85 -60.25 30
NA 06:00:00 TS 26.80 -60.50 30
NA 09:00:00 TS 26.72 -60.70 30
NA 12:00:00 TS 26.80 -61.00 30
NA 15:00:00 TS 27.18 -61.55 30
NA 18:00:00 TS 27.70 -62.20 30
NA 21:00:00 TS 28.20 -62.76 30
NA 1883-10-08 00:00:00 TS 28.70 -63.30 30
NA 03:00:00 TS 29.16 -63.85 32
NA 06:00:00 TS 29.60 -64.40 35
NA 09:00:00 TS 30.09 -65.08 37
NA 12:00:00 TS 30.50 -65.50 40
NA 15:00:00 TS 30.74 -65.33 42
NA 18:00:00 TS 30.90 -64.90 45
NA 21:00:00 TS 31.10 -64.59 45
NA 1883-10-09 00:00:00 TS 31.30 -64.30 45
NA 03:00:00 TS 31.51 -64.05 47
NA 06:00:00 TS 31.70 -63.80 50
NA 09:00:00 TS 31.88 -63.40 52
NA 12:00:00 TS 32.00 -63.20 55 998
NA 15:00:00 TS 32.02 -63.54 52
NA 18:00:00 TS 32.00 -64.10 50
NA 21:00:00 TS 32.00 -64.51 47
NA 1883-10-10 00:00:00 TS 32.00 -65.00 45
NA 03:00:00 TS 32.00 -65.67 45
NA 06:00:00 TS 32.00 -66.40 45
NA 09:00:00 TS 32.02 -67.03 42
NA 12:00:00 TS 32.00 -67.70 40
NA 15:00:00 TS 31.86 -68.48 40
NA 18:00:00 TS 31.70 -69.30 40
NA 21:00:00 TS 31.60 -70.10 40
NA 1883-10-11 00:00:00 TS 31.50 -70.90 40
NA 03:00:00 TS 31.35 -71.71 37
NA 06:00:00 TS 31.20 -72.50 35
NA 09:00:00 TS 31.06 -73.32 35
NA 12:00:00 TS 31.00 -74.00 35 1006
NA 15:00:00 TS 31.08 -74.41 32
NA 18:00:00 TS 31.20 -74.70 30
NA 21:00:00 TS 31.26 -75.05 30
NA 1883-10-12 00:00:00 TS 31.30 -75.40 30
NA 03:00:00 TS 31.35 -75.75 30
NA 06:00:00 TS 31.40 -76.10 30
NA 09:00:00 TS 31.45 -76.37 30
NA 12:00:00 TS 31.50 -76.80 30 1009
NA 15:00:00 TS 31.55 -77.77 30
NA 18:00:00 ET 31.60 -78.60 30
NA 21:00:00 ET 31.65 -78.57 30
NA 1883-10-13 00:00:00 ET 31.70 -78.40 30
NA 03:00:00 ET 31.76 -78.77 30
NA 06:00:00 ET 31.80 -79.30 30
NA 09:00:00 ET 31.77 -79.84 30
NA 12:00:00 ET 31.80 -80.20 30 1013
NA 15:00:00 ET 32.02 -80.14 30
NA 18:00:00 ET 32.30 -79.90 30
NA 21:00:00 ET 32.51 -79.75 30
NA 1883-10-14 00:00:00 ET 32.70 -79.60 30
NA 03:00:00 ET 32.90 -79.45 30
NA 06:00:00 ET 33.10 -79.30 30
NA 09:00:00 ET 33.30 -79.15 30
NA 12:00:00 ET 33.50 -79.00 30 1016

Source Information

Agency Information
USA
TOKYO
CMA
HKO
NEWDELHI
REUNION
BOM
NADI
WELLINGTON
DS824
TD9636
TD9635
NEUMANN
MLC

All available IBTrACS Data

SEASON BASIN SUBBASIN ISO_TIME_________ NATURE LAT LON DIST2LAND LANDFALL IFLAG USA SSHS MLC LAT MLC LON MLC CLASS MLC WIND MLC PRES STORM SPEED STORM DIR
Year degrees north degrees east km km 1 degrees north degrees east kts mb kts degrees
1883 NA NA 1883-10-06 12:00:00 TS 27.00 -59.00 1175 1154 _____________O -1 27.00 -59.00 TD 25 5 254
1883 NA NA 15:00:00 TS 26.94 -59.25 1148 1137 _____________P -1 26.94 -59.25 TD 25 5 257
1883 NA NA 18:00:00 TS 26.90 -59.50 1137 1126 _____________O -1 26.90 -59.50 TD 25 4 265
1883 NA NA 21:00:00 TS 26.90 -59.75 1126 1109 _____________P -1 26.90 -59.75 TD 27 4 270
1883 NA NA 1883-10-07 00:00:00 TS 26.90 -60.00 1109 1099 _____________O -1 26.90 -60.00 TD 30 4 264
1883 NA NA 03:00:00 TS 26.85 -60.25 1084 1074 _____________P -1 26.85 -60.25 TD 30 5 257
1883 NA NA 06:00:00 TS 26.80 -60.50 1074 1055 _____________O -1 26.80 -60.50 TD 30 4 253
1883 NA NA 09:00:00 TS 26.72 -60.70 1055 1045 _____________P -1 26.72 -60.70 TD 30 4 270
1883 NA NA 12:00:00 TS 26.80 -61.00 1050 1046 _____________O -1 26.80 -61.00 TD 30 9 301
1883 NA NA 15:00:00 TS 27.18 -61.55 1065 1065 _____________P -1 27.18 -61.55 TD 30 14 310
1883 NA NA 18:00:00 TS 27.70 -62.20 1095 1095 _____________O -1 27.70 -62.20 TD 30 15 314
1883 NA NA 21:00:00 TS 28.20 -62.76 1131 1131 _____________P -1 28.20 -62.76 TD 30 14 316
1883 NA NA 1883-10-08 00:00:00 TS 28.70 -63.30 1174 1174 _____________O -1 28.70 -63.30 TD 30 14 315
1883 NA NA 03:00:00 TS 29.16 -63.85 1219 1219 _____________P -1 29.16 -63.85 TD 32 13 313
1883 NA NA 06:00:00 TS 29.60 -64.40 1244 1165 _____________O -1 29.60 -64.40 TS 35 14 311
1883 NA NA 09:00:00 TS 30.09 -65.08 1157 1100 _____________P -1 30.09 -65.08 TS 37 13 313
1883 NA NA 12:00:00 TS 30.50 -65.50 1100 1087 _____________O -1 30.50 -65.50 TS 40 7 342
1883 NA NA 15:00:00 TS 30.74 -65.33 1103 1097 _____________P -1 30.74 -65.33 TS 42 7 52
1883 NA NA 18:00:00 TS 30.90 -64.90 1123 1123 _____________O -1 30.90 -64.90 TS 45 7 60
1883 NA NA 21:00:00 TS 31.10 -64.59 1136 1136 _____________P -1 31.10 -64.59 TS 45 7 52
1883 NA NA 1883-10-09 00:00:00 TS 31.30 -64.30 1149 1149 _____________O -1 31.30 -64.30 TS 45 6 49
1883 NA NA 03:00:00 TS 31.51 -64.05 1164 1159 _____________P -1 31.51 -64.05 TS 47 6 47
1883 NA NA 06:00:00 TS 31.70 -63.80 1171 1171 _____________O -1 31.70 -63.80 TS 50 7 56
1883 NA NA 09:00:00 TS 31.88 -63.40 1195 1195 _____________P -1 31.88 -63.40 TS 52 6 59
1883 NA NA 12:00:00 TS 32.00 -63.20 1208 1182 _____________O -1 32.00 -63.20 TS 55 998 2 320
1883 NA NA 15:00:00 TS 32.02 -63.54 1182 1131 _____________P -1 32.02 -63.54 TS 52 8 270
1883 NA NA 18:00:00 TS 32.00 -64.10 1131 1097 _____________O -1 32.00 -64.10 TS 50 8 268
1883 NA NA 21:00:00 TS 32.00 -64.51 1097 1055 _____________P -1 32.00 -64.51 TS 47 8 270
1883 NA NA 1883-10-10 00:00:00 TS 32.00 -65.00 1055 1004 _____________O -1 32.00 -65.00 TS 45 10 270
1883 NA NA 03:00:00 TS 32.00 -65.67 996 938 _____________P -1 32.00 -65.67 TS 45 12 270
1883 NA NA 06:00:00 TS 32.00 -66.40 938 889 _____________O -1 32.00 -66.40 TS 45 12 271
1883 NA NA 09:00:00 TS 32.02 -67.03 889 833 _____________P -1 32.02 -67.03 TS 42 11 270
1883 NA NA 12:00:00 TS 32.00 -67.70 833 785 _____________O -1 32.00 -67.70 TS 40 12 263
1883 NA NA 15:00:00 TS 31.86 -68.48 777 731 _____________P -1 31.86 -68.48 TS 40 14 258
1883 NA NA 18:00:00 TS 31.70 -69.30 731 682 _____________O -1 31.70 -69.30 TS 40 14 259
1883 NA NA 21:00:00 TS 31.60 -70.10 682 628 _____________P -1 31.60 -70.10 TS 40 14 262
1883 NA NA 1883-10-11 00:00:00 TS 31.50 -70.90 628 578 _____________O -1 31.50 -70.90 TS 40 14 260
1883 NA NA 03:00:00 TS 31.35 -71.71 585 539 _____________P -1 31.35 -71.71 TS 37 14 258
1883 NA NA 06:00:00 TS 31.20 -72.50 539 500 _____________O -1 31.20 -72.50 TS 35 14 258
1883 NA NA 09:00:00 TS 31.06 -73.32 500 473 _____________P -1 31.06 -73.32 TS 35 13 261
1883 NA NA 12:00:00 TS 31.00 -74.00 473 446 _____________O -1 31.00 -74.00 TS 35 1006 9 271
1883 NA NA 15:00:00 TS 31.08 -74.41 446 424 _____________P -1 31.08 -74.41 TS 32 6 288
1883 NA NA 18:00:00 TS 31.20 -74.70 424 403 _____________O -1 31.20 -74.70 TD 30 6 288
1883 NA NA 21:00:00 TS 31.26 -75.05 396 378 _____________P -1 31.26 -75.05 TD 30 6 279
1883 NA NA 1883-10-12 00:00:00 TS 31.30 -75.40 378 360 _____________O -1 31.30 -75.40 TD 30 6 279
1883 NA NA 03:00:00 TS 31.35 -75.75 355 330 _____________P -1 31.35 -75.75 TD 30 6 280
1883 NA NA 06:00:00 TS 31.40 -76.10 330 320 _____________O -1 31.40 -76.10 TD 30 5 281
1883 NA NA 09:00:00 TS 31.45 -76.37 316 290 _____________P -1 31.45 -76.37 TD 30 6 280
1883 NA NA 12:00:00 TS 31.50 -76.80 290 231 _____________O -1 31.50 -76.80 TD 30 1009 12 275
1883 NA NA 15:00:00 TS 31.55 -77.77 216 172 _____________P -1 31.55 -77.77 TD 30 15 274
1883 NA NA 18:00:00 ET 31.60 -78.60 172 165 _____________O -1 31.60 -78.60 EX 30 7 278
1883 NA NA 21:00:00 ET 31.65 -78.57 172 163 _____________P -1 31.65 -78.57 EX 30 2 60
1883 NA NA 1883-10-13 00:00:00 ET 31.70 -78.40 172 149 _____________O -1 31.70 -78.40 EX 30 2 303
1883 NA NA 03:00:00 ET 31.76 -78.77 143 110 _____________P -1 31.76 -78.77 EX 30 8 277
1883 NA NA 06:00:00 ET 31.80 -79.30 110 91 _____________O -1 31.80 -79.30 EX 30 9 271
1883 NA NA 09:00:00 ET 31.77 -79.84 91 64 _____________P -1 31.77 -79.84 EX 30 8 270
1883 NA NA 12:00:00 ET 31.80 -80.20 64 50 _____________O -1 31.80 -80.20 EX 30 1013 4 314
1883 NA NA 15:00:00 ET 32.02 -80.14 57 34 _____________P -1 32.02 -80.14 EX 30 6 27
1883 NA NA 18:00:00 ET 32.30 -79.90 34 21 _____________O -1 32.30 -79.90 EX 30 6 34
1883 NA NA 21:00:00 ET 32.51 -79.75 29 21 _____________P -1 32.51 -79.75 EX 30 5 32
1883 NA NA 1883-10-14 00:00:00 ET 32.70 -79.60 21 11 _____________O -1 32.70 -79.60 EX 30 5 33
1883 NA NA 03:00:00 ET 32.90 -79.45 11 0 _____________P -1 32.90 -79.45 EX 30 5 32
1883 NA NA 06:00:00 ET 33.10 -79.30 9 0 _____________O -1 33.10 -79.30 EX 30 5 32
1883 NA NA 09:00:00 ET 33.30 -79.15 0 0 _____________P -1 33.30 -79.15 EX 30 5 32
1883 NA NA 12:00:00 ET 33.50 -79.00 9 _____________O -1 33.50 -79.00 EX 30 1016 5 33